Sand Key, FL current weather conditions

sailwx.info

Wind from 070 at 13 knots gusting 17

Air temperature 24.7° C
Dewpoint 23.3° C

Last reported at 2019-Nov-14 10:30 UTC.
Time now 2019-Nov-14 11:24 UTC

Location: N 24°27' W 081°53'.
View on Google Maps.

See reports from other nearby stations

  
Tides and Currents Weather Stations Pressure Air Temp Water Temp Dewpoint Dewpoint Depression Visibility Wind Speed Wind Dir Waves Ship Positions
date/time (UTC)wind fromknots sea level pressurealtimeterstation pressurevisibilityair tempwater tempwave heightnotes
2019-Nov-14 10:30 070 13 gusting 17 24.7
2019-Nov-14 10:20 070 13 gusting 15 24.7
2019-Nov-14 10:10 070 17 gusting 19 24.7
2019-Nov-14 10:00 070 15 gusting 19 24.7
2019-Nov-14 09:50 060 17 gusting 19 24.7
2019-Nov-14 09:40 060 15 gusting 18 24.7
2019-Nov-14 09:30 060 15 gusting 18 24.7
2019-Nov-14 09:20 060 15 gusting 18 24.8
2019-Nov-14 09:10 060 15 gusting 18 24.8
2019-Nov-14 09:00 060 15 gusting 18 24.7
2019-Nov-14 08:50 060 14 gusting 18 24.7
2019-Nov-14 08:40 060 15 gusting 18 24.7
2019-Nov-14 08:30 070 15 gusting 18 24.7
2019-Nov-14 08:20 070 15 gusting 18 24.7
2019-Nov-14 08:10 070 15 gusting 19 24.6
2019-Nov-14 08:00 060 15 gusting 18 24.6
2019-Nov-14 07:50 070 15 gusting 18 24.6
2019-Nov-14 07:40 070 14 gusting 17 24.6
2019-Nov-14 07:30 060 15 gusting 19 24.6
2019-Nov-14 07:20 060 17 gusting 19 24.6
2019-Nov-14 07:10 060 15 gusting 18 24.6
2019-Nov-14 07:00 060 15 gusting 18 24.6
2019-Nov-14 06:50 060 14 gusting 18 24.7
2019-Nov-14 06:40 060 15 gusting 18 24.6
2019-Nov-14 06:30 060 14 gusting 18 24.7
2019-Nov-14 06:20 070 14 gusting 18 24.7
2019-Nov-14 06:10 060 15 gusting 18 24.7
2019-Nov-14 06:00 060 15 gusting 19 24.8
2019-Nov-14 05:50 060 14 gusting 18 24.8
2019-Nov-14 05:40 060 14 gusting 18 24.8
2019-Nov-14 05:30 060 14 gusting 18 24.8
2019-Nov-14 05:20 050 14 gusting 17 24.9
2019-Nov-14 05:10 060 14 gusting 17 24.9
2019-Nov-14 05:00 050 14 gusting 17 25.0
2019-Nov-14 04:50 050 13 gusting 17 24.9
2019-Nov-14 04:40 060 14 gusting 17 25.0
2019-Nov-14 04:30 060 14 gusting 18 25.0
2019-Nov-14 04:20 050 13 gusting 17 25.1
2019-Nov-14 04:10 060 13 gusting 17 25.2
2019-Nov-14 04:00 060 13 gusting 17 25.3
2019-Nov-14 03:50 060 14 gusting 18 25.6
2019-Nov-14 03:40 070 15 gusting 19 25.7
2019-Nov-14 03:30 070 13 gusting 18 25.8
2019-Nov-14 03:20 060 13 gusting 15 25.9
2019-Nov-14 03:10 060 12 gusting 14 25.9
2019-Nov-14 03:00 070 12 gusting 15 26.0
2019-Nov-14 02:50 060 12 gusting 14 26.1
2019-Nov-14 02:40 060 12 gusting 14 26.1
2019-Nov-14 02:30 070 12 gusting 13 26.2
2019-Nov-14 02:20 070 12 gusting 13 26.1
2019-Nov-14 02:10 060 12 gusting 13 26.1
2019-Nov-14 02:00 070 13 gusting 15 26.2
2019-Nov-14 01:50 060 12 gusting 14 26.2
2019-Nov-14 01:40 060 12 gusting 13 26.2
2019-Nov-14 01:30 060 11 gusting 13 26.2
2019-Nov-14 01:20 070 11 gusting 12 26.2
2019-Nov-14 01:10 070 11 gusting 13 26.2
2019-Nov-14 01:00 070 11 gusting 13 26.2
2019-Nov-14 00:50 070 11 gusting 13 26.2
2019-Nov-14 00:40 070 11 gusting 13 26.2
2019-Nov-14 00:30 070 12 gusting 13 26.2
2019-Nov-14 00:20 070 12 gusting 13 26.2
2019-Nov-14 00:10 080 13 gusting 14 26.2
2019-Nov-14 00:00 070 11 gusting 13 26.1
2019-Nov-13 23:50 070 12 gusting 13 26.0
2019-Nov-13 23:40 070 11 gusting 13 25.9
2019-Nov-13 23:30 070 11 gusting 13 25.9
2019-Nov-13 23:20 060 12 gusting 13 25.8
2019-Nov-13 23:10 060 11 gusting 13 25.8
2019-Nov-13 23:00 050 12 gusting 13 25.8
2019-Nov-13 22:50 050 12 gusting 13 25.7
2019-Nov-13 22:40 050 12 gusting 14 25.8
2019-Nov-13 22:30 060 12 gusting 13 25.8
2019-Nov-13 22:20 060 12 gusting 13 25.8
2019-Nov-13 22:10 060 12 gusting 13 25.7
2019-Nov-13 22:00 060 12 gusting 15 25.7
2019-Nov-13 21:50 060 13 gusting 17 25.6
2019-Nov-13 21:40 060 13 gusting 17 25.6
2019-Nov-13 21:30 050 13 gusting 15 25.6
2019-Nov-13 21:20 060 13 gusting 15 25.7
2019-Nov-13 21:10 080 13 gusting 15 25.8
2019-Nov-13 21:00 080 13 gusting 14 25.8
2019-Nov-13 20:50 080 13 gusting 15 25.7
2019-Nov-13 20:40 080 12 gusting 13 25.7
2019-Nov-13 20:30 080 12 gusting 13 25.8
2019-Nov-13 20:20 080 12 gusting 15 25.9
2019-Nov-13 20:10 080 12 gusting 13 25.8
2019-Nov-13 20:00 080 12 gusting 13 25.7
2019-Nov-13 19:50 070 12 gusting 13 25.7
2019-Nov-13 19:40 070 12 gusting 14 25.7
2019-Nov-13 19:30 070 12 gusting 14 25.7
2019-Nov-13 19:20 070 12 gusting 13 25.7
2019-Nov-13 19:10 080 12 gusting 13 25.7
2019-Nov-13 19:00 080 13 gusting 14 25.5
2019-Nov-13 18:50 080 13 gusting 15 25.4
2019-Nov-13 18:40 080 14 25.4
2019-Nov-13 18:30 080 20 25.4
2019-Nov-13 18:20 080 12 gusting 14 25.0
2019-Nov-13 18:10 070 11 gusting 15 24.1
2019-Nov-13 18:00 070 12 gusting 14 24.0
2019-Nov-13 17:50 040 12 gusting 19 24.5
2019-Nov-13 17:40 020 8 gusting 11 24.3
2019-Nov-13 17:30 010 9 gusting 12 23.8
2019-Nov-13 17:20 360 12 gusting 13 23.6
2019-Nov-13 17:10 010 13 gusting 14 23.7
2019-Nov-13 17:00 010 12 gusting 13 24.0
2019-Nov-13 16:50 350 11 gusting 13 24.0
2019-Nov-13 16:40 350 12 gusting 14 24.3
2019-Nov-13 16:30 340 9 gusting 12 24.9
2019-Nov-13 16:20 040 6 gusting 8 26.0
2019-Nov-13 16:10 080 6 gusting 8 26.3
2019-Nov-13 16:00 090 6 gusting 7 26.3
2019-Nov-13 15:50 090 6 gusting 8 26.3
2019-Nov-13 15:40 090 6 gusting 8 26.5
2019-Nov-13 15:30 080 6 gusting 7 26.5
2019-Nov-13 15:20 090 5 gusting 6 26.4
2019-Nov-13 15:10 080 6 gusting 8 26.5
2019-Nov-13 15:00 070 5 gusting 6 26.4
2019-Nov-13 14:50 070 5 gusting 6 26.4
2019-Nov-13 14:40 070 4 gusting 6 26.4
2019-Nov-13 14:30 060 4 gusting 6 26.3
2019-Nov-13 14:20 050 5 gusting 6 26.2
2019-Nov-13 14:10 050 5 gusting 6 26.1
2019-Nov-13 14:00 060 4 gusting 6 26.1
2019-Nov-13 13:50 050 4 gusting 5 26.1
2019-Nov-13 13:40 050 4 gusting 5 26.1
2019-Nov-13 13:30 050 4 gusting 5 26.1
2019-Nov-13 13:20 060 4 gusting 5 26.0
2019-Nov-13 13:10 050 4 gusting 5 26.0
2019-Nov-13 13:00 070 2 gusting 4 25.9
2019-Nov-13 12:50 070 4 gusting 5 25.8
2019-Nov-13 12:40 050 2 gusting 4 25.8
2019-Nov-13 12:30 050 4 gusting 5 25.8
2019-Nov-13 12:20 040 2 gusting 4 25.8
2019-Nov-13 12:10 040 4 gusting 5 25.7
2019-Nov-13 12:00 040 4 gusting 5 25.6
2019-Nov-13 11:50 040 4 gusting 5 25.6
2019-Nov-13 11:40 050 2 gusting 5 25.6
2019-Nov-13 11:30 030 4 gusting 5 25.6
2019-Nov-13 11:20 020 4 gusting 5 25.6
2019-Nov-13 11:10 020 4 gusting 5 25.6
2019-Nov-13 11:00 030 4 gusting 5 25.6
2019-Nov-13 10:50 030 4 gusting 5 25.6
2019-Nov-13 10:40 010 5 gusting 5 25.6
2019-Nov-13 10:30 020 4 gusting 5 25.6
2019-Nov-13 10:20 010 4 gusting 6 25.6
2019-Nov-13 10:10 020 4 gusting 5 25.6
2019-Nov-13 10:00 020 2 gusting 5 25.6
2019-Nov-13 09:50 010 5 gusting 6 25.6
2019-Nov-13 09:40 360 4 gusting 5 25.6
2019-Nov-13 09:30 360 5 gusting 6 25.6
2019-Nov-13 09:20 350 4 gusting 5 25.6
2019-Nov-13 09:10 350 4 gusting 5 25.6
2019-Nov-13 09:00 010 2 gusting 5 25.6
2019-Nov-13 08:50 360 2 gusting 5 25.6
2019-Nov-13 08:40 350 2 gusting 4 25.6
2019-Nov-13 08:30 010 2 gusting 4 25.6
2019-Nov-13 08:20 360 2 gusting 4 25.7
2019-Nov-13 08:10 010 1 gusting 2 25.7
2019-Nov-13 08:00 350 1 gusting 2 25.7
2019-Nov-13 07:50 350 2 gusting 5 25.7
2019-Nov-13 07:40 360 4 gusting 5 25.7
2019-Nov-13 07:30 010 2 gusting 5 25.7
2019-Nov-13 07:20 360 5 gusting 6 25.7
2019-Nov-13 07:10 360 5 gusting 6 25.7
2019-Nov-13 07:00 360 6 gusting 6 25.8
2019-Nov-13 06:50 360 6 gusting 6 25.8
2019-Nov-13 06:40 360 5 gusting 6 25.8
2019-Nov-13 06:30 360 5 gusting 6 25.8
2019-Nov-13 06:20 010 5 gusting 5 25.8
2019-Nov-13 06:10 010 5 gusting 6 25.8
2019-Nov-13 06:00 010 5 gusting 6 25.8
2019-Nov-13 05:50 010 5 gusting 6 25.8
2019-Nov-13 05:40 010 5 gusting 6 25.9
2019-Nov-13 05:30 360 4 gusting 5 25.9
2019-Nov-13 05:20 010 4 gusting 5 25.9
2019-Nov-13 05:10 020 4 gusting 5 26.0
2019-Nov-13 05:00 010 4 gusting 5 26.0
2019-Nov-13 04:50 010 4 gusting 6 26.0
2019-Nov-13 04:40 020 5 gusting 6 26.0
2019-Nov-13 04:30 010 5 gusting 6 26.0
2019-Nov-13 04:20 010 6 gusting 6 26.1
2019-Nov-13 04:10 010 6 gusting 6 26.1
2019-Nov-13 04:00 010 6 gusting 6 26.1
2019-Nov-13 03:50 020 5 gusting 6 26.1
2019-Nov-13 03:40 010 6 gusting 6 26.2
2019-Nov-13 03:30 010 6 gusting 6 26.2
2019-Nov-13 03:20 020 5 gusting 6 26.2
2019-Nov-13 03:10 020 5 gusting 6 26.2
2019-Nov-13 03:00 020 6 gusting 6 26.3
2019-Nov-13 02:50 020 6 gusting 6 26.2
2019-Nov-13 02:40 020 6 gusting 6 26.2
2019-Nov-13 02:30 020 6 gusting 6 26.3
2019-Nov-13 02:20 030 6 gusting 7 26.3
2019-Nov-13 02:10 020 6 gusting 6 26.3
2019-Nov-13 02:00 030 5 gusting 6 26.2
2019-Nov-13 01:50 020 5 gusting 6 26.2
2019-Nov-13 01:40 020 5 gusting 6 26.2
2019-Nov-13 01:30 020 6 gusting 6 26.2
2019-Nov-13 01:20 020 6 gusting 6 26.2
2019-Nov-13 01:10 020 6 gusting 6 26.3
2019-Nov-13 01:00 030 5 gusting 6 26.3
2019-Nov-13 00:50 030 5 gusting 6 26.3
2019-Nov-13 00:40 030 5 gusting 6 26.3
2019-Nov-13 00:30 030 5 gusting 6 26.3
2019-Nov-13 00:20 030 4 gusting 6 26.3
2019-Nov-13 00:10 040 5 gusting 6 26.3
2019-Nov-13 00:00 030 5 gusting 6 26.3
2019-Nov-12 23:50 020 5 gusting 6 26.3
2019-Nov-12 23:40 030 6 gusting 6 26.4
2019-Nov-12 23:30 030 5 gusting 6 26.4
2019-Nov-12 23:20 040 5 gusting 6 26.4
2019-Nov-12 23:10 040 5 gusting 6 26.4
2019-Nov-12 23:00 040 5 gusting 6 26.4
2019-Nov-12 22:50 030 5 gusting 6 26.4
2019-Nov-12 22:40 040 5 gusting 6 26.4
2019-Nov-12 22:30 040 5 gusting 6 26.5
2019-Nov-12 22:20 030 5 gusting 6 26.6
2019-Nov-12 22:10 030 5 gusting 6 26.7
2019-Nov-12 22:00 030 5 gusting 6 26.7
2019-Nov-12 21:50 030 5 gusting 6 26.7
2019-Nov-12 21:40 030 5 gusting 6 26.6
2019-Nov-12 21:30 030 5 gusting 6 26.6
2019-Nov-12 21:20 020 4 gusting 5 26.7
2019-Nov-12 21:10 020 4 gusting 5 26.6
2019-Nov-12 21:00 030 5 gusting 6 26.6
2019-Nov-12 20:50 030 5 gusting 6 26.6
2019-Nov-12 20:40 030 6 gusting 7 26.8
2019-Nov-12 20:30 030 5 gusting 6 27.0
2019-Nov-12 20:20 040 2 gusting 4 27.1
2019-Nov-12 20:10 050 2 gusting 4 27.1
2019-Nov-12 20:00 030 1 gusting 2 27.0
2019-Nov-12 19:50 040 2 gusting 4 27.1
2019-Nov-12 19:40 050 2 gusting 4 27.0
2019-Nov-12 19:30 080 2 gusting 4 27.1
2019-Nov-12 19:20 090 2 gusting 5 27.1
2019-Nov-12 19:10 090 4 gusting 5 27.1
2019-Nov-12 19:00 080 4 gusting 5 27.2
2019-Nov-12 18:50 080 4 gusting 5 27.3
2019-Nov-12 18:40 090 5 gusting 6 27.2
2019-Nov-12 18:30 070 5 gusting 6 27.1
2019-Nov-12 18:20 090 6 gusting 7 27.1
2019-Nov-12 18:10 090 6 gusting 8 27.1
2019-Nov-12 18:00 090 5 gusting 6 27.1
2019-Nov-12 17:50 080 6 gusting 7 27.0
2019-Nov-12 17:40 070 6 gusting 6 27.0
2019-Nov-12 17:30 060 6 gusting 8 27.1
2019-Nov-12 17:20 080 5 gusting 7 27.6
2019-Nov-12 17:10 100 5 gusting 6 27.6
2019-Nov-12 17:00 120 5 gusting 6 27.6
2019-Nov-12 16:50 110 5 gusting 6 27.5
2019-Nov-12 16:40 120 6 gusting 6 27.4
2019-Nov-12 16:30 130 6 gusting 7 27.4
2019-Nov-12 16:20 130 6 gusting 8 27.4
2019-Nov-12 16:10 120 7 gusting 8 27.5
2019-Nov-12 16:00 130 7 gusting 9 27.5
2019-Nov-12 15:50 130 6 gusting 8 27.6
2019-Nov-12 15:40 130 6 gusting 8 27.5
2019-Nov-12 15:30 120 7 gusting 9 27.5
2019-Nov-12 15:20 130 7 gusting 9 27.5
2019-Nov-12 15:10 130 7 gusting 9 27.4
2019-Nov-12 15:00 120 8 gusting 11 27.4
2019-Nov-12 14:50 120 8 gusting 11 27.4
2019-Nov-12 14:40 120 8 gusting 11 27.4
2019-Nov-12 14:30 120 8 gusting 12 27.3
2019-Nov-12 14:20 120 8 gusting 11 27.3
2019-Nov-12 14:10 130 8 gusting 12 27.3
2019-Nov-12 14:00 120 7 gusting 9 27.3
2019-Nov-12 13:50 130 7 gusting 9 27.3
2019-Nov-12 13:40 130 8 gusting 9 27.3
2019-Nov-12 13:30 130 7 gusting 11 27.3
2019-Nov-12 13:20 130 9 gusting 12 27.2
2019-Nov-12 13:10 130 8 gusting 13 27.2
2019-Nov-12 13:00 120 9 gusting 12 27.3
2019-Nov-12 12:50 120 9 gusting 12 27.2
2019-Nov-12 12:40 120 8 gusting 11 27.2
2019-Nov-12 12:30 120 8 gusting 12 27.1
2019-Nov-12 12:20 110 7 gusting 11 27.0
2019-Nov-12 12:10 130 6 gusting 8 27.0
2019-Nov-12 12:00 130 7 gusting 9 27.0
2019-Nov-12 11:50 120 6 gusting 7 26.9
2019-Nov-12 11:40 130 7 gusting 11 26.9
2019-Nov-12 11:30 120 7 gusting 11 26.9
2019-Nov-12 11:20 130 7 gusting 9 26.9
2019-Nov-12 11:10 110 8 gusting 11 26.9
2019-Nov-12 11:00 120 7 gusting 11 26.9